createdAt,value
2023-05-18T00:00:11.009Z,102424.72
2023-05-18T00:02:39.195Z,102425.66
2023-05-18T00:05:08.859Z,102423.00
2023-05-18T00:07:39.543Z,102419.47
2023-05-18T00:10:08.994Z,102421.22
2023-05-18T00:12:37.217Z,102431.84
2023-05-18T00:15:06.449Z,102417.69
2023-05-18T00:17:34.476Z,102431.84
2023-05-18T00:20:05.285Z,102432.78
2023-05-18T00:22:33.367Z,102430.13
2023-05-18T00:25:02.810Z,102434.50
2023-05-18T00:27:31.448Z,102435.34
2023-05-18T00:29:59.451Z,102433.63
2023-05-18T00:32:27.508Z,102441.53
2023-05-18T00:34:55.573Z,102445.06
2023-05-18T00:37:23.555Z,102438.81
2023-05-18T00:39:51.588Z,102440.59
2023-05-18T00:42:21.275Z,102431.66
2023-05-18T00:44:49.241Z,102433.41
2023-05-18T00:47:18.482Z,102440.44
2023-05-18T00:49:46.611Z,102444.00
2023-05-18T00:52:14.618Z,102445.72
2023-05-18T00:54:43.434Z,102437.72
2023-05-18T00:57:11.497Z,102443.09
2023-05-18T00:59:41.413Z,102443.97
2023-05-18T01:02:09.733Z,102458.00
2023-05-18T01:04:38.064Z,102446.47
2023-05-18T01:07:07.141Z,102447.22
2023-05-18T01:09:35.935Z,102451.63
2023-05-18T01:12:12.928Z,102459.47
2023-05-18T01:14:49.952Z,102455.94
2023-05-18T01:17:27.322Z,102455.81
2023-05-18T01:20:13.161Z,102454.03
2023-05-18T01:23:20.470Z,102459.31
2023-05-18T01:25:55.005Z,102454.81
2023-05-18T01:28:27.053Z,102453.94
2023-05-18T01:30:55.972Z,102441.44
2023-05-18T01:33:24.721Z,102454.78
2023-05-18T01:35:53.499Z,102456.53
2023-05-18T01:38:23.656Z,102457.47
2023-05-18T01:41:01.086Z,102459.28
2023-05-18T01:43:34.609Z,102457.47
2023-05-18T01:46:08.568Z,102455.75
2023-05-18T01:48:40.600Z,102458.34
2023-05-18T01:51:12.135Z,102461.78
2023-05-18T01:53:44.996Z,102468.00
2023-05-18T01:56:15.462Z,102462.75
2023-05-18T01:58:46.281Z,102467.16
2023-05-18T02:01:16.102Z,102455.59
2023-05-18T02:03:45.287Z,102460.00
2023-05-18T02:06:13.456Z,102462.66
2023-05-18T02:08:41.615Z,102469.59
2023-05-18T02:11:09.679Z,102467.75
2023-05-18T02:13:37.722Z,102472.22
2023-05-18T02:16:08.139Z,102466.06
2023-05-18T02:18:38.620Z,102465.06
2023-05-18T02:21:06.709Z,102456.22
2023-05-18T02:23:34.955Z,102465.13
2023-05-18T02:26:03.540Z,102460.53
2023-05-18T02:28:31.632Z,102464.16
2023-05-18T02:31:08.252Z,102462.47
2023-05-18T02:33:40.192Z,102467.72
2023-05-18T02:36:09.856Z,102471.38
2023-05-18T02:38:39.258Z,102470.41
2023-05-18T02:41:08.107Z,102471.38
2023-05-18T02:43:36.434Z,102473.22
2023-05-18T02:46:05.360Z,102459.81
2023-05-18T02:48:34.804Z,102467.09
2023-05-18T02:51:02.870Z,102465.34
2023-05-18T02:53:31.119Z,102466.34
2023-05-18T02:55:59.159Z,102469.03
2023-05-18T02:58:27.252Z,102473.56
2023-05-18T03:00:56.183Z,102476.22
2023-05-18T03:03:25.812Z,102468.19
2023-05-18T03:05:55.456Z,102459.28
2023-05-18T03:08:23.704Z,102460.06
2023-05-18T03:10:52.083Z,102460.81
2023-05-18T03:13:20.166Z,102460.03
2023-05-18T03:15:49.328Z,102459.03
2023-05-18T03:18:17.335Z,102463.56
2023-05-18T03:20:45.455Z,102468.00
2023-05-18T03:23:14.822Z,102466.28
2023-05-18T03:25:43.220Z,102478.78
2023-05-18T03:28:11.419Z,102477.84
2023-05-18T03:30:39.528Z,102465.34
2023-05-18T03:33:07.761Z,102472.56
2023-05-18T03:35:35.900Z,102478.81
2023-05-18T03:38:03.870Z,102483.31
2023-05-18T03:40:33.333Z,102485.94
2023-05-18T03:43:01.724Z,102474.41
2023-05-18T03:45:30.266Z,102485.03
2023-05-18T03:47:58.538Z,102491.34
2023-05-18T03:50:26.634Z,102493.16
2023-05-18T03:52:55.710Z,102496.81
2023-05-18T03:55:24.010Z,102496.88
2023-05-18T03:57:53.869Z,102487.06
2023-05-18T04:00:22.050Z,102493.38
2023-05-18T04:02:51.905Z,102490.75
2023-05-18T04:05:20.714Z,102497.84
2023-05-18T04:07:50.058Z,102496.97
2023-05-18T04:10:19.645Z,102496.28
2023-05-18T04:12:47.715Z,102492.72
2023-05-18T04:15:17.090Z,102499.84
2023-05-18T04:17:45.973Z,102498.16
2023-05-18T04:20:15.324Z,102486.50
2023-05-18T04:22:46.764Z,102505.22
2023-05-18T04:25:15.456Z,102509.72
2023-05-18T04:27:45.529Z,102515.94
2023-05-18T04:30:14.735Z,102520.34
2023-05-18T04:32:44.149Z,102513.19
2023-05-18T04:35:12.665Z,102519.47
2023-05-18T04:37:41.414Z,102526.59
2023-05-18T04:40:13.462Z,102533.69
2023-05-18T04:42:45.320Z,102524.91
2023-05-18T04:45:17.805Z,102532.00
2023-05-18T04:47:48.528Z,102530.34
2023-05-18T04:50:17.076Z,102528.50
2023-05-18T04:52:48.634Z,102533.81
2023-05-18T04:55:23.046Z,102533.03
2023-05-18T04:57:54.012Z,102536.59
2023-05-18T05:00:22.468Z,102533.97
2023-05-18T05:02:52.163Z,102540.22
2023-05-18T05:05:20.674Z,102543.75
2023-05-18T05:07:50.235Z,102537.38
2023-05-18T05:10:18.444Z,102536.59
2023-05-18T05:12:49.304Z,102549.91
2023-05-18T05:15:18.041Z,102548.25
2023-05-18T05:17:47.733Z,102543.78
2023-05-18T05:20:17.281Z,102548.25
2023-05-18T05:22:45.544Z,102555.28
2023-05-18T05:25:13.705Z,102525.06
2023-05-18T05:27:41.728Z,102553.63
2023-05-18T05:30:10.521Z,102553.72
2023-05-18T05:32:38.641Z,102557.06
2023-05-18T05:35:07.409Z,102559.78
2023-05-18T05:37:36.896Z,102568.66
2023-05-18T05:40:06.505Z,102566.91
2023-05-18T05:42:34.953Z,102568.66
2023-05-18T05:45:03.049Z,102569.59
2023-05-18T05:47:31.120Z,102575.00
2023-05-18T05:49:59.181Z,102575.91
2023-05-18T05:52:28.728Z,102576.88
2023-05-18T05:54:58.128Z,102571.66
2023-05-18T05:57:26.455Z,102579.69
2023-05-18T05:59:54.468Z,102570.72
2023-05-18T06:02:22.530Z,102570.72
2023-05-18T06:04:50.538Z,102579.66
2023-05-18T06:07:18.545Z,102580.41
2023-05-18T06:09:46.618Z,102591.06
2023-05-18T06:12:15.971Z,102591.88
2023-05-18T06:14:43.964Z,102591.13
2023-05-18T06:17:11.960Z,102589.38
2023-05-18T06:19:40.057Z,102600.16
2023-05-18T06:22:08.143Z,102599.16
2023-05-18T06:24:36.144Z,102598.28
2023-05-18T06:27:05.224Z,102597.38
2023-05-18T06:29:34.614Z,102593.81
2023-05-18T06:32:03.938Z,102602.75
2023-05-18T06:34:31.971Z,102593.94
2023-05-18T06:37:00.149Z,102591.28
2023-05-18T06:39:28.558Z,102597.47
2023-05-18T06:41:56.698Z,102609.09
2023-05-18T06:44:24.754Z,102601.16
2023-05-18T06:46:54.137Z,102599.44
2023-05-18T06:49:22.234Z,102611.06
2023-05-18T06:51:50.530Z,102612.00
2023-05-18T06:54:18.676Z,102604.94
2023-05-18T06:56:47.247Z,102610.19
2023-05-18T06:59:15.310Z,102607.59
2023-05-18T07:01:43.439Z,102601.41
2023-05-18T07:04:13.005Z,102599.63
2023-05-18T07:06:41.381Z,102604.06
2023-05-18T07:09:09.416Z,102599.59
2023-05-18T07:11:37.482Z,102604.84
2023-05-18T07:14:05.994Z,102599.44
2023-05-18T07:16:34.220Z,102605.69
2023-05-18T07:19:02.811Z,102597.72
2023-05-18T07:21:32.284Z,102600.47
2023-05-18T07:24:00.356Z,102604.84
2023-05-18T07:26:28.397Z,102603.03
2023-05-18T07:28:56.523Z,102605.69
2023-05-18T07:31:24.604Z,102600.41
2023-05-18T07:33:52.676Z,102597.72
2023-05-18T07:36:21.111Z,102604.88
2023-05-18T07:38:54.863Z,102607.44
2023-05-18T07:41:23.665Z,102595.16
2023-05-18T07:43:52.055Z,102606.75
2023-05-18T07:46:20.564Z,102608.53
2023-05-18T07:48:48.738Z,102612.16
2023-05-18T07:51:16.959Z,102608.63
2023-05-18T07:53:46.048Z,102606.84
2023-05-18T07:56:15.425Z,102604.22
2023-05-18T07:58:44.641Z,102614.88
2023-05-18T08:01:12.670Z,102613.13
2023-05-18T08:03:40.773Z,102607.78
2023-05-18T08:06:08.891Z,102615.75
2023-05-18T08:08:37.942Z,102609.50
2023-05-18T08:11:06.489Z,102612.00
2023-05-18T08:13:35.891Z,102613.78
2023-05-18T08:16:11.893Z,102612.00
2023-05-18T08:18:41.060Z,102610.28
2023-05-18T08:21:10.150Z,102606.75
2023-05-18T08:23:38.953Z,102610.25
2023-05-18T08:26:08.178Z,102608.41
2023-05-18T08:28:37.690Z,102604.94
2023-05-18T08:31:06.184Z,102610.25
2023-05-18T08:33:34.271Z,102611.16
2023-05-18T08:36:02.414Z,102605.00
2023-05-18T08:38:31.955Z,102605.09
2023-05-18T08:41:09.285Z,102605.13
2023-05-18T08:43:43.001Z,102598.00
2023-05-18T08:46:19.803Z,102596.19
2023-05-18T08:48:48.753Z,102600.66
2023-05-18T08:51:20.847Z,102597.06
2023-05-18T08:53:54.099Z,102600.66
2023-05-18T08:56:24.365Z,102606.00
2023-05-18T08:58:56.647Z,102593.56
2023-05-18T09:01:28.748Z,102598.03
2023-05-18T09:03:58.269Z,102602.44
2023-05-18T09:06:28.327Z,102591.72
2023-05-18T09:08:58.448Z,102597.97
2023-05-18T09:11:28.047Z,102591.72
2023-05-18T09:13:57.543Z,102597.13
2023-05-18T09:16:26.008Z,102597.09
2023-05-18T09:18:54.795Z,102598.00
2023-05-18T09:21:22.923Z,102599.75
2023-05-18T09:23:51.894Z,102589.13
2023-05-18T09:26:21.001Z,102596.22
2023-05-18T09:28:53.323Z,102583.78
2023-05-18T09:31:24.718Z,102592.66
2023-05-18T09:33:53.366Z,102584.66
2023-05-18T09:36:26.095Z,102590.91
2023-05-18T09:38:54.640Z,102582.91
2023-05-18T09:41:22.684Z,102581.13
2023-05-18T09:43:52.455Z,102582.88
2023-05-18T09:46:22.934Z,102580.25
2023-05-18T09:48:52.749Z,102582.03
2023-05-18T09:51:25.009Z,102578.44
2023-05-18T09:53:56.540Z,102574.88
2023-05-18T09:56:25.520Z,102570.41
2023-05-18T09:58:53.798Z,102567.75
2023-05-18T10:01:23.331Z,102574.88
2023-05-18T10:03:53.200Z,102572.16
2023-05-18T10:06:22.336Z,102562.28
2023-05-18T10:08:50.614Z,102566.63
2023-05-18T10:11:20.285Z,102569.25
2023-05-18T10:13:48.422Z,102568.31
2023-05-18T10:16:16.832Z,102562.09
2023-05-18T10:18:48.132Z,102567.41
2023-05-18T10:21:17.965Z,102562.03
2023-05-18T10:23:48.879Z,102558.47
2023-05-18T10:26:21.287Z,102557.66
2023-05-18T10:28:51.420Z,102563.91
2023-05-18T10:31:22.715Z,102558.47
2023-05-18T10:33:54.305Z,102552.19
2023-05-18T10:36:25.522Z,102551.97
2023-05-18T10:38:54.316Z,102555.56
2023-05-18T10:41:24.104Z,102555.66
2023-05-18T10:43:53.934Z,102554.78
2023-05-18T10:46:26.669Z,102546.75
2023-05-18T10:48:58.479Z,102551.97
2023-05-18T10:51:27.335Z,102555.53
2023-05-18T10:53:56.445Z,102552.03
2023-05-18T10:56:25.142Z,102550.28
2023-05-18T10:58:53.546Z,102544.06
2023-05-18T11:01:21.854Z,102550.22
2023-05-18T11:03:51.032Z,102550.13
2023-05-18T11:06:25.654Z,102553.56
2023-05-18T11:08:54.094Z,102542.84
2023-05-18T11:11:25.870Z,102546.34
2023-05-18T11:13:54.115Z,102537.28
2023-05-18T11:16:22.225Z,102547.78
2023-05-18T11:18:51.692Z,102547.78
2023-05-18T11:21:54.696Z,102540.63
2023-05-18T11:24:30.359Z,102544.22
2023-05-18T11:27:00.001Z,102541.44
2023-05-18T11:29:33.004Z,102538.66
2023-05-18T11:32:01.521Z,102540.22
2023-05-18T11:34:42.200Z,102536.94
2023-05-18T11:37:12.537Z,102537.75
2023-05-18T11:39:51.679Z,102533.81
2023-05-18T11:42:25.030Z,102534.50
2023-05-18T11:44:55.596Z,102523.75
2023-05-18T11:47:31.347Z,102524.31
2023-05-18T11:50:00.436Z,102517.88
2023-05-18T11:52:31.170Z,102518.00
2023-05-18T11:55:00.547Z,102518.44
2023-05-18T11:57:40.415Z,102515.53
2023-05-18T12:00:11.964Z,102522.19
2023-05-18T12:02:43.688Z,102521.47
2023-05-18T12:05:12.364Z,102518.47
2023-05-18T12:07:42.410Z,102519.34
2023-05-18T12:10:12.670Z,102505.81
2023-05-18T12:12:41.222Z,102514.34
2023-05-18T12:15:11.491Z,102512.53
2023-05-18T12:17:41.054Z,102507.44
2023-05-18T12:20:10.172Z,102516.94
2023-05-18T12:22:38.461Z,102512.81
2023-05-18T12:25:09.413Z,102512.84
2023-05-18T12:27:40.131Z,102503.44
2023-05-18T12:30:11.954Z,102497.84
2023-05-18T12:32:40.555Z,102498.25
2023-05-18T12:35:09.585Z,102501.16
2023-05-18T12:37:45.267Z,102487.28
2023-05-18T12:40:19.684Z,102487.56
2023-05-18T12:42:54.546Z,102479.34
2023-05-18T12:45:24.840Z,102478.47
2023-05-18T12:47:55.331Z,102470.38
2023-05-18T12:50:26.454Z,102480.03
2023-05-18T12:52:55.999Z,102480.94
2023-05-18T12:55:26.577Z,102483.88
2023-05-18T12:58:01.785Z,102473.59
2023-05-18T13:00:33.749Z,102465.22
2023-05-18T13:03:12.553Z,102464.75
2023-05-18T13:05:44.799Z,102471.16
2023-05-18T13:08:15.694Z,102468.75
2023-05-18T13:10:48.037Z,102462.84
2023-05-18T13:13:21.425Z,102460.13
2023-05-18T13:15:51.968Z,102459.47
2023-05-18T13:18:19.989Z,102456.41
2023-05-18T13:20:51.376Z,102457.28
2023-05-18T13:23:21.440Z,102448.94
2023-05-18T13:25:51.722Z,102449.59
2023-05-18T13:28:21.186Z,102447.28
2023-05-18T13:30:50.448Z,102449.06
2023-05-18T13:33:19.375Z,102441.16
2023-05-18T13:35:49.628Z,102439.78
2023-05-18T13:38:17.876Z,102451.13
2023-05-18T13:40:46.540Z,102441.63
2023-05-18T13:43:15.979Z,102433.38
2023-05-18T13:45:44.553Z,102427.75
2023-05-18T13:48:12.711Z,102419.13
2023-05-18T13:50:40.819Z,102423.41
2023-05-18T13:53:08.847Z,102413.03
2023-05-18T13:55:36.993Z,102416.13
2023-05-18T13:58:05.362Z,102409.47
2023-05-18T14:00:36.461Z,102417.56
2023-05-18T14:03:05.163Z,102416.84
2023-05-18T14:05:33.296Z,102413.13
2023-05-18T14:08:01.516Z,102406.94
2023-05-18T14:10:29.828Z,102407.75
2023-05-18T14:12:58.036Z,102403.69
2023-05-18T14:15:26.099Z,102404.84
2023-05-18T14:17:55.543Z,102401.59
2023-05-18T14:20:23.659Z,102391.22
2023-05-18T14:22:51.830Z,102396.56
2023-05-18T14:25:19.993Z,102398.75
2023-05-18T14:27:47.998Z,102399.75
2023-05-18T14:30:16.082Z,102409.59
2023-05-18T14:32:44.224Z,102394.09
2023-05-18T14:35:13.696Z,102396.53
2023-05-18T14:37:41.672Z,102399.31
2023-05-18T14:40:10.769Z,102397.91
2023-05-18T14:42:38.804Z,102392.28
2023-05-18T14:45:07.889Z,102390.59
2023-05-18T14:47:35.975Z,102395.75
2023-05-18T14:50:04.097Z,102399.31
2023-05-18T14:52:33.518Z,102381.75
2023-05-18T14:55:01.607Z,102394.34
2023-05-18T14:57:29.624Z,102392.63
2023-05-18T14:59:58.246Z,102388.06
2023-05-18T15:02:26.350Z,102387.59
2023-05-18T15:04:54.425Z,102386.56
2023-05-18T15:07:22.942Z,102391.50
2023-05-18T15:09:52.330Z,102386.38
2023-05-18T15:12:21.352Z,102382.63
2023-05-18T15:14:49.358Z,102375.66
2023-05-18T15:17:17.947Z,102386.28
2023-05-18T15:19:47.085Z,102381.47
2023-05-18T15:22:15.117Z,102376.84
2023-05-18T15:24:43.436Z,102388.66
2023-05-18T15:27:12.850Z,102387.69
2023-05-18T15:29:40.948Z,102387.03
2023-05-18T15:32:09.620Z,102375.13
2023-05-18T15:34:37.716Z,102387.22
2023-05-18T15:37:06.060Z,102382.88
2023-05-18T15:39:34.156Z,102382.31
2023-05-18T15:42:02.130Z,102375.13
2023-05-18T15:44:31.548Z,102369.09
2023-05-18T15:46:59.618Z,102374.56
2023-05-18T15:49:27.716Z,102374.72
2023-05-18T15:51:55.773Z,102368.13
2023-05-18T15:54:23.874Z,102369.25
2023-05-18T15:56:51.894Z,102374.47
2023-05-18T15:59:19.889Z,102375.91
2023-05-18T16:01:49.329Z,102372.63
2023-05-18T16:04:17.414Z,102362.66
2023-05-18T16:06:45.423Z,102373.03
2023-05-18T16:09:13.462Z,102366.50
2023-05-18T16:11:41.541Z,102370.53
2023-05-18T16:14:09.524Z,102371.78
2023-05-18T16:16:37.587Z,102376.13
2023-05-18T16:19:07.392Z,102374.03
2023-05-18T16:21:35.545Z,102382.00
2023-05-18T16:24:03.638Z,102379.94
2023-05-18T16:26:31.737Z,102377.03
2023-05-18T16:28:59.868Z,102372.53
2023-05-18T16:31:27.966Z,102370.72
2023-05-18T16:33:56.302Z,102365.81
2023-05-18T16:36:26.173Z,102374.63
2023-05-18T16:38:54.446Z,102373.22
2023-05-18T16:41:22.509Z,102374.34
2023-05-18T16:43:50.591Z,102377.25
2023-05-18T16:46:19.988Z,102374.50
2023-05-18T16:48:48.248Z,102382.75
2023-05-18T16:51:16.379Z,102380.31
2023-05-18T16:53:45.843Z,102376.78
2023-05-18T16:56:14.131Z,102381.19
2023-05-18T16:58:42.204Z,102377.19
2023-05-18T17:01:19.692Z,102370.22
2023-05-18T17:03:54.815Z,102378.63
2023-05-18T17:06:23.017Z,102379.00
2023-05-18T17:08:57.747Z,102379.47
2023-05-18T17:11:26.976Z,102376.88
2023-05-18T17:13:55.227Z,102385.31
2023-05-18T17:16:23.469Z,102385.72
2023-05-18T17:18:53.390Z,102383.53
2023-05-18T17:21:21.497Z,102387.31
2023-05-18T17:23:49.478Z,102384.41
2023-05-18T17:26:18.952Z,102387.31
2023-05-18T17:28:46.952Z,102391.31
2023-05-18T17:31:15.114Z,102396.84
2023-05-18T17:33:47.116Z,102391.09
2023-05-18T17:36:17.088Z,102391.44
2023-05-18T17:38:45.153Z,102390.81
2023-05-18T17:41:13.260Z,102390.13
2023-05-18T17:43:42.795Z,102385.66
2023-05-18T17:46:10.817Z,102389.06
2023-05-18T17:48:38.917Z,102396.75
2023-05-18T17:51:07.425Z,102399.63
2023-05-18T17:53:35.648Z,102399.03
2023-05-18T17:56:04.023Z,102398.75
2023-05-18T17:58:32.071Z,102399.06
2023-05-18T18:01:01.495Z,102395.69
2023-05-18T18:03:29.547Z,102392.78
2023-05-18T18:05:57.682Z,102390.97
2023-05-18T18:08:28.318Z,102394.63
2023-05-18T18:10:56.431Z,102389.75
2023-05-18T18:13:24.631Z,102403.94
2023-05-18T18:15:52.694Z,102399.41
2023-05-18T18:18:23.371Z,102406.69
2023-05-18T18:20:51.749Z,102404.31
2023-05-18T18:23:19.805Z,102409.75
2023-05-18T18:25:47.900Z,102413.84
2023-05-18T18:28:16.019Z,102417.91
2023-05-18T18:30:44.763Z,102413.66
2023-05-18T18:33:14.261Z,102419.16
2023-05-18T18:35:43.847Z,102412.28
2023-05-18T18:38:12.877Z,102421.81
2023-05-18T18:40:41.131Z,102409.31
2023-05-18T18:43:09.181Z,102416.69
2023-05-18T18:45:37.216Z,102420.41
2023-05-18T18:48:06.090Z,102407.97
2023-05-18T18:50:34.254Z,102416.25
2023-05-18T18:53:03.662Z,102415.19
2023-05-18T18:55:31.830Z,102414.69
2023-05-18T18:58:01.227Z,102416.81
2023-05-18T19:00:29.452Z,102419.50
2023-05-18T19:02:57.572Z,102425.38
2023-05-18T19:05:25.774Z,102428.34
2023-05-18T19:07:55.857Z,102424.63
2023-05-18T19:10:25.596Z,102432.88
2023-05-18T19:12:53.711Z,102438.38
2023-05-18T19:15:22.306Z,102441.28
2023-05-18T19:17:52.199Z,102438.59
2023-05-18T19:20:20.824Z,102441.34
2023-05-18T19:22:48.915Z,102442.28
2023-05-18T19:25:17.127Z,102439.91
2023-05-18T19:27:46.491Z,102443.56
2023-05-18T19:30:16.615Z,102449.94
2023-05-18T19:32:44.628Z,102445.47
2023-05-18T19:35:12.818Z,102457.19
2023-05-18T19:37:41.012Z,102452.75
2023-05-18T19:40:09.585Z,102455.50
2023-05-18T19:42:37.671Z,102450.16
2023-05-18T19:45:08.027Z,102451.13
2023-05-18T19:47:36.445Z,102460.13
2023-05-18T19:50:04.976Z,102462.94
2023-05-18T19:52:33.626Z,102457.69
2023-05-18T19:55:01.959Z,102462.31
2023-05-18T19:57:30.235Z,102461.47
2023-05-18T19:59:58.770Z,102465.06
2023-05-18T20:02:28.349Z,102465.25
2023-05-18T20:04:56.430Z,102469.72
2023-05-18T20:07:24.569Z,102471.59
2023-05-18T20:09:54.485Z,102461.09
2023-05-18T20:12:22.501Z,102468.31
2023-05-18T20:14:51.241Z,102468.34
2023-05-18T20:17:19.268Z,102470.25
2023-05-18T20:19:50.942Z,102472.88
2023-05-18T20:22:19.309Z,102475.63
2023-05-18T20:24:47.349Z,102479.22
2023-05-18T20:27:16.371Z,102480.97
2023-05-18T20:29:44.481Z,102484.63
2023-05-18T20:32:12.633Z,102486.47
2023-05-18T20:34:44.294Z,102488.25
2023-05-18T20:37:14.121Z,102490.09
2023-05-18T20:39:50.281Z,102501.66
2023-05-18T20:42:21.733Z,102497.19
2023-05-18T20:44:50.862Z,102500.84
2023-05-18T20:47:20.357Z,102503.47
2023-05-18T20:49:48.789Z,102510.59
2023-05-18T20:52:18.289Z,102506.16
2023-05-18T20:54:46.834Z,102501.72
2023-05-18T20:57:14.849Z,102503.50
2023-05-18T20:59:42.891Z,102504.44
2023-05-18T21:02:10.903Z,102501.78
2023-05-18T21:04:39.017Z,102503.63
2023-05-18T21:07:07.038Z,102503.63
2023-05-18T21:09:36.537Z,102500.97
2023-05-18T21:12:04.925Z,102490.31
2023-05-18T21:14:32.924Z,102492.91
2023-05-18T21:17:01.235Z,102500.00
2023-05-18T21:19:29.427Z,102503.53
2023-05-18T21:21:57.577Z,102501.75
2023-05-18T21:24:25.570Z,102503.59
2023-05-18T21:26:55.643Z,102500.94
2023-05-18T21:29:23.772Z,102492.97
2023-05-18T21:31:51.873Z,102500.16
2023-05-18T21:34:20.012Z,102499.31
2023-05-18T21:36:48.057Z,102502.88
2023-05-18T21:39:16.150Z,102504.66
2023-05-18T21:41:44.496Z,102497.56
2023-05-18T21:44:13.945Z,102502.88
2023-05-18T21:46:42.109Z,102499.34
2023-05-18T21:49:10.234Z,102500.25
2023-05-18T21:51:38.226Z,102498.47
2023-05-18T21:54:06.414Z,102501.13
2023-05-18T21:56:34.940Z,102498.47
2023-05-18T21:59:03.000Z,102501.13
2023-05-18T22:01:32.512Z,102504.69
2023-05-18T22:04:00.661Z,102499.34
2023-05-18T22:06:29.076Z,102501.06
2023-05-18T22:08:57.130Z,102501.06
2023-05-18T22:11:25.186Z,102501.06
2023-05-18T22:13:53.216Z,102501.00
2023-05-18T22:16:21.316Z,102504.53
2023-05-18T22:18:50.830Z,102504.53
2023-05-18T22:21:18.942Z,102503.66
2023-05-18T22:23:46.978Z,102502.72
2023-05-18T22:26:15.000Z,102505.38
2023-05-18T22:28:43.023Z,102503.56
2023-05-18T22:31:11.000Z,102498.16
2023-05-18T22:33:39.004Z,102503.47
2023-05-18T22:36:08.920Z,102500.75
2023-05-18T22:38:36.945Z,102507.84
2023-05-18T22:41:04.959Z,102508.72
2023-05-18T22:43:33.001Z,102506.88
2023-05-18T22:46:01.101Z,102509.53
2023-05-18T22:48:31.912Z,102504.19
2023-05-18T22:51:00.754Z,102506.03
2023-05-18T22:53:30.127Z,102505.06
2023-05-18T22:55:58.672Z,102510.34
2023-05-18T22:58:26.708Z,102505.91
2023-05-18T23:00:54.770Z,102512.00
2023-05-18T23:03:22.795Z,102504.81
2023-05-18T23:05:50.852Z,102504.78
2023-05-18T23:08:20.322Z,102510.09
2023-05-18T23:10:50.789Z,102509.22
2023-05-18T23:13:19.632Z,102502.09
2023-05-18T23:15:48.839Z,102504.75
2023-05-18T23:18:17.012Z,102503.84
2023-05-18T23:20:45.138Z,102507.41
2023-05-18T23:23:13.211Z,102503.88
2023-05-18T23:25:41.280Z,102509.09
2023-05-18T23:28:10.659Z,102509.19
2023-05-18T23:30:38.656Z,102503.03
2023-05-18T23:33:07.703Z,102503.06
2023-05-18T23:35:36.635Z,102497.78
2023-05-18T23:38:06.400Z,102504.84
2023-05-18T23:40:34.772Z,102503.91
2023-05-18T23:43:03.522Z,102501.06
2023-05-18T23:45:33.760Z,102508.16
2023-05-18T23:48:03.066Z,102508.03
2023-05-18T23:50:32.007Z,102506.13
2023-05-18T23:53:04.296Z,102502.50
2023-05-18T23:55:36.021Z,102503.31
2023-05-18T23:58:05.329Z,102512.91
